Arlington, Kansas
Current Conditions -  °F | °C
As of 1:52 AM on Friday 31 Oct 2014 (Local Time) from KHUT Reporting Station
Clear Clear  
Wind Chill: 38°   Ceiling: Unl
Heat Index: 45°   Visibility: 10mi
Dew Point: 35°   Wind: 15mph
Humidity: 68%   Direction: 10°N
Pressure: 30.36"   Gusts: NA
Location:  37.9°N, 98.18°W
Report Text: KHUT 310652Z AUTO 01013KT 10SM CLR 07/02 A3036 RMK AO2 SLP271 T00720017
Loading
Personal Weather Stations






























Interactive Weather Map
Tropical Storm Tracking
New forecast layout! Learn more

10-Day Weather Forecast

Advertisements
Track Severe Weather on mobile